This is the latest recevied weather packets stored in our database for station/object WA6OOO. If no packets are shown the sender has not sent any weather packets the latest 10 day(s).
| Time | Temp. | Humidity | Pressure | Rain* | Wind** | Luminosity | Snow |
|---|---|---|---|---|---|---|---|
| 1777908335 | 15.56° C | 78% | 1018.2 hPa | 0 mm | - | 181 W/m² | - |
| 1777908032 | 15.56° C | 80% | 1018 hPa | 0 mm | - | 245 W/m² | - |
| 1777907727 | 15° C | 80% | 1018 hPa | 0 mm | - | 222 W/m² | - |
| 1777907422 | 15° C | 81% | 1017.9 hPa | 0 mm | - | 220 W/m² | - |
| 1777907119 | 14.44° C | 82% | 1017.9 hPa | 0 mm | - | 144 W/m² | - |
| 1777906817 | 14.44° C | 82% | 1017.8 hPa | 0 mm | - | 202 W/m² | - |
| 1777906515 | 14.44° C | 82% | 1017.8 hPa | 0 mm | - | 192 W/m² | - |
| 1777906209 | 14.44° C | 81% | 1017.7 hPa | 0 mm | - | 117 W/m² | - |
| 1777905906 | 14.44° C | 79% | 1017.8 hPa | 0 mm | - | 189 W/m² | - |
| 1777905603 | 13.89° C | 78% | 1017.8 hPa | 0 mm | - | 207 W/m² | - |
| 1777905300 | 13.89° C | 76% | 1018.2 hPa | 0 mm | - | 176 W/m² | - |
| 1777904997 | 13.33° C | 79% | 1017.8 hPa | 0 mm | - | 159 W/m² | - |
| 1777904695 | 12.22° C | 80% | 1017.8 hPa | 0 mm | - | 144 W/m² | - |
| 1777904391 | 11.67° C | 82% | 1018 hPa | 0 mm | - | 82 W/m² | - |
| 1777904088 | 12.22° C | 83% | 1017.8 hPa | 0 mm | - | 45 W/m² | - |
| 1777903785 | 11.67° C | 84% | 1017.6 hPa | 0 mm | - | 97 W/m² | - |
| 1777903482 | 11.67° C | 83% | 1017.7 hPa | 0 mm | - | 78 W/m² | - |
| 1777903178 | 11.11° C | 84% | 1017.7 hPa | 0 mm | - | 65 W/m² | - |
| 1777902874 | 11.11° C | 85% | 1017.8 hPa | 0 mm | - | 45 W/m² | - |
| 1777902572 | 11.11° C | 86% | 1017.8 hPa | 0 mm | - | 32 W/m² | - |
| 1777902268 | 11.11° C | 86% | 1017.8 hPa | 0 mm | - | 34 W/m² | - |
| 1777901967 | 11.67° C | 85% | 1017.9 hPa | 0 mm | - | 27 W/m² | - |
| 1777901664 | 11.67° C | 86% | 1017.9 hPa | 0 mm | - | 19 W/m² | - |
| 1777901361 | 11.11° C | 86% | 1017.9 hPa | 0 mm | - | 15 W/m² | - |
| 1777901059 | 11.11° C | 87% | 1017.7 hPa | 0 mm | - | 11 W/m² | - |
* Rain latest hour (hover to see other rain measurements)
** Current wind speed in m/s (hover to see current wind gust speed)